Time;durP1;ratioP1;P1;durP2;ratioP2;P2;SDS_P1;SDS_P2;PMS_P1;PMS_P2;Temp;Humidity;BMP_temperature;BMP_pressure;BME280_temperature;BME280_humidity;BME280_pressure;Samples;Min_cycle;Max_cycle;Signal;HPM_P1;HPM_P2
2023/05/26 00:02:14;;;;;;;;;;;8.30;99.90;;;;;;5089099;28;20023;-85
2023/05/26 00:04:43;;;;;;;;;;;8.20;99.90;;;;;;5118405;27;20044;-84
2023/05/26 00:07:08;;;;;;;;;;;8.30;99.90;;;;;;5088164;28;19931;-84
2023/05/26 00:09:34;;;;;;;;;;;8.30;99.90;;;;;;5087176;28;19938;-84
2023/05/26 00:12:01;;;;;;;;;;;8.20;99.90;;;;;;5087143;28;19934;-83
2023/05/26 00:14:26;;;;;;;;;;;8.30;99.90;;;;;;5088602;28;19967;-84
2023/05/26 00:16:53;;;;;;;;;;;8.30;99.90;;;;;;5085373;28;19971;-84
2023/05/26 00:19:21;;;;;;;;;;;8.30;99.90;;;;;;5088813;28;19924;-84
2023/05/26 00:21:46;;;;;;;;;;;8.30;99.90;;;;;;5086600;28;19974;-84
2023/05/26 00:24:12;;;;;;;;;;;8.20;99.90;;;;;;5087664;28;20035;-84
2023/05/26 00:26:37;;;;;;;;;;;8.20;99.90;;;;;;5088021;28;19964;-83
2023/05/26 00:29:03;;;;;;;;;;;8.20;99.90;;;;;;5116523;27;19924;-84
2023/05/26 00:31:29;;;;;;;;;;;8.10;99.90;;;;;;5087784;28;19931;-84
2023/05/26 00:33:54;;;;;;;;;;;8.10;99.90;;;;;;5088421;28;19969;-85
2023/05/26 00:39:00;;;;;;;;;;;8.00;99.90;;;;;;5143745;27;19934;-84
2023/05/26 00:41:26;;;;;;;;;;;8.00;99.90;;;;;;5104571;28;20270;-84
2023/05/26 00:43:52;;;;;;;;;;;8.00;99.90;;;;;;5124626;27;19934;-85
2023/05/26 00:46:18;;;;;;;;;;;8.00;99.90;;;;;;5102660;28;19928;-85
2023/05/26 00:48:43;;;;;;;;;;;8.10;99.90;;;;;;5099921;28;19928;-85
2023/05/26 00:51:11;;;;;;;;;;;8.10;99.90;;;;;;5104301;28;20339;-84
2023/05/26 00:53:40;;;;;;;;;;;8.00;99.90;;;;;;5112196;28;19932;-84
2023/05/26 00:56:06;;;;;;;;;;;8.00;99.90;;;;;;5137134;27;19935;-84
2023/05/26 00:58:32;;;;;;;;;;;7.90;99.90;;;;;;5107491;28;19975;-85
2023/05/26 01:00:58;;;;;;;;;;;7.80;99.90;;;;;;5103860;28;20050;-85
2023/05/26 01:03:23;;;;;;;;;;;7.70;99.90;;;;;;5113119;28;20018;-83
2023/05/26 01:05:49;;;;;;;;;;;7.70;99.90;;;;;;5088928;28;19932;-84
2023/05/26 01:08:15;;;;;;;;;;;7.70;99.90;;;;;;5110854;28;19932;-85
2023/05/26 01:10:40;;;;;;;;;;;7.70;99.90;;;;;;5105846;28;20453;-84
2023/05/26 01:13:12;;;;;;;;;;;7.70;99.90;;;;;;5109625;28;19928;-84
2023/05/26 01:15:56;;;;;;;;;;;7.60;99.90;;;;;;5113411;28;19934;-84
2023/05/26 01:18:28;;;;;;;;;;;7.70;99.90;;;;;;5110881;28;20357;-84
2023/05/26 01:21:01;;;;;;;;;;;7.60;99.90;;;;;;5114035;28;19927;-84
2023/05/26 01:23:39;;;;;;;;;;;7.60;99.90;;;;;;5110400;28;19953;-84
2023/05/26 01:26:31;;;;;;;;;;;7.70;99.90;;;;;;5113213;28;19928;-84
2023/05/26 01:29:10;;;;;;;;;;;7.70;99.90;;;;;;5089048;28;19928;-84
2023/05/26 01:31:38;;;;;;;;;;;7.60;99.90;;;;;;5108033;28;19923;-85
2023/05/26 01:34:04;;;;;;;;;;;7.60;99.90;;;;;;5109594;28;19969;-84
2023/05/26 01:36:29;;;;;;;;;;;7.60;99.90;;;;;;5108131;28;20339;-84
2023/05/26 01:38:55;;;;;;;;;;;7.60;99.90;;;;;;5113725;28;19928;-83
2023/05/26 01:41:26;;;;;;;;;;;7.60;99.90;;;;;;5094846;28;19981;-84
2023/05/26 01:43:59;;;;;;;;;;;7.60;99.90;;;;;;5097008;28;19927;-84
2023/05/26 01:46:43;;;;;;;;;;;7.60;99.90;;;;;;5091676;28;19927;-84
2023/05/26 01:49:09;;;;;;;;;;;7.50;99.90;;;;;;5109308;28;20541;-84
2023/05/26 01:51:36;;;;;;;;;;;7.60;99.90;;;;;;5093634;28;19928;-85
2023/05/26 01:54:04;;;;;;;;;;;7.60;99.90;;;;;;5095135;28;20386;-86
2023/05/26 01:56:31;;;;;;;;;;;7.50;99.90;;;;;;5099361;28;19973;-83
2023/05/26 01:58:58;;;;;;;;;;;7.50;99.90;;;;;;5095622;28;20402;-83
2023/05/26 02:01:24;;;;;;;;;;;7.60;99.90;;;;;;5101437;28;19976;-84
2023/05/26 02:03:49;;;;;;;;;;;7.50;99.90;;;;;;5094131;28;20411;-84
2023/05/26 02:06:15;;;;;;;;;;;7.50;99.90;;;;;;5096504;28;19923;-84
2023/05/26 02:08:40;;;;;;;;;;;7.40;99.90;;;;;;5101656;28;19939;-84
2023/05/26 02:11:06;;;;;;;;;;;7.50;99.90;;;;;;5091826;28;19935;-84
2023/05/26 02:13:31;;;;;;;;;;;7.50;99.90;;;;;;5080993;28;19932;-83
2023/05/26 02:15:57;;;;;;;;;;;7.40;99.90;;;;;;5096327;28;19928;-85
2023/05/26 02:18:24;;;;;;;;;;;7.40;99.90;;;;;;5095624;28;19928;-85
2023/05/26 02:20:50;;;;;;;;;;;7.50;99.90;;;;;;5099548;28;20365;-85
2023/05/26 02:23:15;;;;;;;;;;;7.40;99.90;;;;;;5075799;28;19931;-85
2023/05/26 02:25:41;;;;;;;;;;;7.30;99.90;;;;;;5079844;28;19927;-85
2023/05/26 02:28:07;;;;;;;;;;;7.50;99.90;;;;;;5075473;28;19935;-84
2023/05/26 02:30:32;;;;;;;;;;;7.30;99.90;;;;;;5092994;28;20377;-85
2023/05/26 02:32:58;;;;;;;;;;;7.30;99.90;;;;;;5096061;28;19932;-84
2023/05/26 02:35:24;;;;;;;;;;;7.20;99.90;;;;;;5094294;28;19928;-84
2023/05/26 02:37:49;;;;;;;;;;;7.20;99.90;;;;;;5091835;28;19939;-84
2023/05/26 02:40:15;;;;;;;;;;;7.10;99.90;;;;;;5101776;28;19931;-84
2023/05/26 02:42:41;;;;;;;;;;;7.20;99.90;;;;;;5091181;28;22402;-83
2023/05/26 02:45:07;;;;;;;;;;;7.10;99.90;;;;;;5098615;28;20335;-84
2023/05/26 02:47:32;;;;;;;;;;;7.10;99.90;;;;;;5092764;28;19936;-84
2023/05/26 02:49:58;;;;;;;;;;;7.10;99.90;;;;;;5101453;28;19927;-83
2023/05/26 02:52:23;;;;;;;;;;;7.10;99.90;;;;;;5093927;28;20014;-83
2023/05/26 02:54:50;;;;;;;;;;;7.10;99.90;;;;;;5079112;28;19931;-83
2023/05/26 02:57:15;;;;;;;;;;;6.90;99.90;;;;;;5097677;28;20027;-84
2023/05/26 02:59:41;;;;;;;;;;;6.90;99.90;;;;;;5095368;28;20015;-84
2023/05/26 03:02:06;;;;;;;;;;;6.90;99.90;;;;;;5095850;28;19965;-84
2023/05/26 03:04:32;;;;;;;;;;;6.90;99.90;;;;;;5097760;28;19966;-83
2023/05/26 03:06:57;;;;;;;;;;;6.80;99.90;;;;;;5095671;28;19977;-84
2023/05/26 03:09:23;;;;;;;;;;;6.80;99.90;;;;;;5080242;28;19927;-84
2023/05/26 03:11:48;;;;;;;;;;;6.70;99.90;;;;;;5089419;28;19932;-84
2023/05/26 03:14:14;;;;;;;;;;;6.70;99.90;;;;;;5098589;28;19924;-84
2023/05/26 03:16:40;;;;;;;;;;;6.60;99.90;;;;;;5091441;28;19973;-84
2023/05/26 03:19:05;;;;;;;;;;;6.60;99.90;;;;;;5074795;28;19931;-84
2023/05/26 03:21:32;;;;;;;;;;;6.60;99.90;;;;;;5096209;28;20518;-83
2023/05/26 03:23:57;;;;;;;;;;;6.40;99.90;;;;;;5087331;28;19924;-84
2023/05/26 03:26:23;;;;;;;;;;;6.40;99.90;;;;;;5094292;28;19927;-84
2023/05/26 03:28:48;;;;;;;;;;;6.30;99.90;;;;;;5097974;28;20518;-84
2023/05/26 03:31:14;;;;;;;;;;;6.40;99.90;;;;;;5095419;28;19928;-83
2023/05/26 03:33:40;;;;;;;;;;;6.50;99.90;;;;;;5100780;28;20031;-84
2023/05/26 03:36:06;;;;;;;;;;;6.50;99.90;;;;;;5081529;28;20043;-84
2023/05/26 03:38:32;;;;;;;;;;;6.50;99.90;;;;;;5104427;28;19928;-84
2023/05/26 03:40:57;;;;;;;;;;;6.50;99.90;;;;;;5096732;28;20259;-84
2023/05/26 03:43:23;;;;;;;;;;;6.40;99.90;;;;;;5097521;28;19931;-84
2023/05/26 03:45:48;;;;;;;;;;;6.40;99.90;;;;;;5093337;28;19972;-84
2023/05/26 03:48:14;;;;;;;;;;;6.40;99.90;;;;;;5097678;28;19928;-83
2023/05/26 03:50:40;;;;;;;;;;;6.40;99.90;;;;;;5098816;28;19943;-84
2023/05/26 03:53:05;;;;;;;;;;;6.50;99.90;;;;;;5080255;28;19946;-84
2023/05/26 03:55:33;;;;;;;;;;;6.60;99.90;;;;;;5096844;28;19939;-85
2023/05/26 03:57:59;;;;;;;;;;;6.50;99.90;;;;;;5092308;28;19931;-85
2023/05/26 04:00:27;;;;;;;;;;;6.50;99.90;;;;;;5098476;28;20560;-84
2023/05/26 04:02:53;;;;;;;;;;;6.50;99.90;;;;;;5099667;28;19928;-84
2023/05/26 04:05:18;;;;;;;;;;;6.60;99.90;;;;;;5094960;28;19943;-82
2023/05/26 04:07:46;;;;;;;;;;;6.60;99.90;;;;;;5098956;28;19923;-83
2023/05/26 04:10:11;;;;;;;;;;;6.60;99.90;;;;;;5080991;28;19936;-83
2023/05/26 04:12:37;;;;;;;;;;;6.60;99.90;;;;;;5096107;28;19993;-84
2023/05/26 04:15:03;;;;;;;;;;;6.70;99.90;;;;;;5097631;28;20003;-84
2023/05/26 04:17:29;;;;;;;;;;;6.90;99.90;;;;;;5095794;28;19932;-84
2023/05/26 04:19:55;;;;;;;;;;;6.80;99.90;;;;;;5094263;28;19984;-84
2023/05/26 04:22:20;;;;;;;;;;;6.80;99.90;;;;;;5098770;28;19983;-84
2023/05/26 04:24:49;;;;;;;;;;;6.80;99.90;;;;;;5094392;28;19985;-83
2023/05/26 04:27:18;;;;;;;;;;;7.00;99.90;;;;;;5096554;28;19928;-85
2023/05/26 04:29:43;;;;;;;;;;;7.00;99.90;;;;;;5094324;28;19943;-84
2023/05/26 04:32:09;;;;;;;;;;;7.10;99.90;;;;;;5100536;28;20316;-86
2023/05/26 04:34:35;;;;;;;;;;;7.30;99.90;;;;;;5096721;28;19928;-84
2023/05/26 04:37:04;;;;;;;;;;;7.50;99.90;;;;;;5098593;28;19928;-82
2023/05/26 04:39:32;;;;;;;;;;;7.70;99.90;;;;;;5095848;28;19983;-82
2023/05/26 04:41:58;;;;;;;;;;;7.80;99.90;;;;;;5098398;28;19924;-84
2023/05/26 04:44:24;;;;;;;;;;;8.00;99.90;;;;;;5099302;28;20287;-84
2023/05/26 04:46:50;;;;;;;;;;;9.20;99.90;;;;;;5099720;28;20042;-84
2023/05/26 04:49:16;;;;;;;;;;;10.60;99.90;;;;;;5081892;28;19924;-83
2023/05/26 04:51:41;;;;;;;;;;;11.60;99.90;;;;;;5097500;28;19931;-84
2023/05/26 04:54:07;;;;;;;;;;;12.40;99.90;;;;;;5100268;28;20027;-84
2023/05/26 04:56:33;;;;;;;;;;;13.10;99.90;;;;;;5099908;28;20034;-84
2023/05/26 04:58:58;;;;;;;;;;;13.60;99.90;;;;;;5096472;28;20457;-85
2023/05/26 05:01:24;;;;;;;;;;;14.20;99.90;;;;;;5079962;28;22483;-85
2023/05/26 05:03:50;;;;;;;;;;;14.70;99.90;;;;;;5096555;28;19934;-85
2023/05/26 05:06:15;;;;;;;;;;;15.20;99.90;;;;;;5095255;28;19928;-85
2023/05/26 05:08:41;;;;;;;;;;;15.50;99.90;;;;;;5090723;28;19973;-84
2023/05/26 05:11:06;;;;;;;;;;;15.90;99.90;;;;;;5096780;28;20125;-85
2023/05/26 05:13:32;;;;;;;;;;;15.90;99.90;;;;;;5094347;28;19976;-85
2023/05/26 05:15:58;;;;;;;;;;;16.10;99.90;;;;;;5097204;28;19923;-85
2023/05/26 05:18:24;;;;;;;;;;;16.70;99.90;;;;;;5096830;28;20441;-84
2023/05/26 05:20:50;;;;;;;;;;;16.90;99.90;;;;;;5098967;28;20323;-83
2023/05/26 05:23:15;;;;;;;;;;;17.20;99.90;;;;;;5092855;28;19928;-84
2023/05/26 05:25:41;;;;;;;;;;;17.70;99.90;;;;;;5100281;28;20301;-84
2023/05/26 05:28:06;;;;;;;;;;;18.00;99.90;;;;;;5096756;28;19928;-84
2023/05/26 05:30:32;;;;;;;;;;;17.40;99.90;;;;;;5081331;28;20301;-84
2023/05/26 05:32:58;;;;;;;;;;;18.10;99.90;;;;;;5101191;28;20555;-83
2023/05/26 05:35:23;;;;;;;;;;;17.90;99.90;;;;;;5103966;28;19959;-85
2023/05/26 05:37:50;;;;;;;;;;;17.80;99.90;;;;;;5099966;28;19932;-84
2023/05/26 05:40:15;;;;;;;;;;;17.30;99.90;;;;;;5102020;28;20486;-84
2023/05/26 05:42:41;;;;;;;;;;;17.40;99.90;;;;;;5100447;28;19934;-84
2023/05/26 05:45:06;;;;;;;;;;;15.90;99.90;;;;;;5099119;28;20478;-85
2023/05/26 05:47:32;;;;;;;;;;;15.00;99.90;;;;;;5094568;28;19931;-84
2023/05/26 05:49:57;;;;;;;;;;;15.10;99.90;;;;;;5099951;28;19928;-86
2023/05/26 05:52:23;;;;;;;;;;;14.60;99.90;;;;;;5098641;28;20326;-86
2023/05/26 05:54:48;;;;;;;;;;;14.70;99.90;;;;;;5099551;28;20385;-84
2023/05/26 05:57:14;;;;;;;;;;;14.40;99.90;;;;;;5099078;28;20347;-83
2023/05/26 05:59:40;;;;;;;;;;;14.10;99.90;;;;;;5098305;28;20285;-85
2023/05/26 06:02:05;;;;;;;;;;;13.60;99.90;;;;;;5096001;28;19928;-83
2023/05/26 06:04:31;;;;;;;;;;;12.90;99.90;;;;;;5100727;28;19932;-84
2023/05/26 06:06:59;;;;;;;;;;;13.20;99.90;;;;;;5095555;28;19935;-83
2023/05/26 06:09:24;;;;;;;;;;;12.90;99.90;;;;;;5081951;28;19943;-85
2023/05/26 06:11:50;;;;;;;;;;;12.80;99.90;;;;;;5097783;28;20293;-84
2023/05/26 06:14:15;;;;;;;;;;;12.70;99.90;;;;;;5098256;28;19931;-83
2023/05/26 06:16:41;;;;;;;;;;;12.40;99.90;;;;;;5099786;28;19928;-86
2023/05/26 06:19:06;;;;;;;;;;;12.80;99.90;;;;;;5100621;28;19932;-83
2023/05/26 06:21:32;;;;;;;;;;;12.90;99.90;;;;;;5101860;28;19939;-85
2023/05/26 06:23:57;;;;;;;;;;;12.30;99.90;;;;;;5097115;28;19924;-84
2023/05/26 06:26:23;;;;;;;;;;;12.30;99.90;;;;;;5093430;28;19928;-83
2023/05/26 06:28:48;;;;;;;;;;;12.30;99.90;;;;;;5077794;28;19954;-83
2023/05/26 06:31:15;;;;;;;;;;;12.40;99.90;;;;;;5093954;28;19928;-83
2023/05/26 06:33:40;;;;;;;;;;;12.40;99.90;;;;;;5094061;28;19927;-85
2023/05/26 06:36:06;;;;;;;;;;;12.30;99.90;;;;;;5094148;28;19931;-83
2023/05/26 06:38:32;;;;;;;;;;;11.90;99.90;;;;;;5096696;28;20416;-84
2023/05/26 06:40:57;;;;;;;;;;;12.10;99.90;;;;;;5094664;28;19938;-82
2023/05/26 06:43:23;;;;;;;;;;;12.50;99.90;;;;;;5091208;28;19949;-86
2023/05/26 06:45:48;;;;;;;;;;;12.70;99.90;;;;;;5086391;28;20301;-85
2023/05/26 06:48:14;;;;;;;;;;;13.10;99.90;;;;;;5090662;28;20360;-87
2023/05/26 06:50:42;;;;;;;;;;;13.90;99.90;;;;;;5081722;28;19939;-85
2023/05/26 06:53:08;;;;;;;;;;;14.00;99.90;;;;;;5082311;28;19985;-85
2023/05/26 06:55:33;;;;;;;;;;;13.90;99.90;;;;;;5072455;28;19931;-86
2023/05/26 06:57:59;;;;;;;;;;;14.00;99.90;;;;;;5084131;28;19928;-86
2023/05/26 07:00:25;;;;;;;;;;;14.70;99.90;;;;;;5090302;28;20300;-85
2023/05/26 07:02:50;;;;;;;;;;;14.60;99.90;;;;;;5083552;28;20010;-82
2023/05/26 07:05:16;;;;;;;;;;;15.30;99.90;;;;;;5098261;28;19927;-84
2023/05/26 07:07:41;;;;;;;;;;;14.80;99.90;;;;;;5100472;28;20081;-84
2023/05/26 07:10:07;;;;;;;;;;;14.70;99.90;;;;;;5099693;28;20763;-86
2023/05/26 07:12:33;;;;;;;;;;;14.50;99.90;;;;;;5094987;28;20464;-85
2023/05/26 07:14:58;;;;;;;;;;;14.70;99.90;;;;;;5096567;28;20278;-85
2023/05/26 07:17:24;;;;;;;;;;;15.20;99.90;;;;;;5102994;28;20182;-85
2023/05/26 07:19:49;;;;;;;;;;;15.40;99.90;;;;;;5098347;28;19928;-85
2023/05/26 07:22:15;;;;;;;;;;;15.60;99.90;;;;;;5100823;28;20331;-82
2023/05/26 07:24:40;;;;;;;;;;;15.10;99.90;;;;;;5100694;28;20354;-86
2023/05/26 07:27:06;;;;;;;;;;;15.50;99.90;;;;;;5099312;28;20035;-86
2023/05/26 07:29:32;;;;;;;;;;;16.50;99.90;;;;;;5071166;28;19931;-83
2023/05/26 07:31:58;;;;;;;;;;;15.40;99.90;;;;;;5092269;28;19931;-82
2023/05/26 07:34:24;;;;;;;;;;;15.70;99.90;;;;;;5098070;28;20381;-85
2023/05/26 07:36:49;;;;;;;;;;;15.90;99.90;;;;;;5097784;28;19928;-87
2023/05/26 07:39:15;;;;;;;;;;;16.20;99.90;;;;;;5102702;28;19931;-86
2023/05/26 07:41:40;;;;;;;;;;;16.90;99.90;;;;;;5096626;28;19928;-83
2023/05/26 07:44:06;;;;;;;;;;;17.00;99.90;;;;;;5097718;28;19924;-85
2023/05/26 07:46:31;;;;;;;;;;;16.70;99.90;;;;;;5080981;28;19932;-88
2023/05/26 07:48:57;;;;;;;;;;;17.10;99.90;;;;;;5098826;28;19927;-86
2023/05/26 07:51:23;;;;;;;;;;;17.60;99.90;;;;;;5100239;28;20079;-85
2023/05/26 07:53:48;;;;;;;;;;;18.20;99.90;;;;;;5100033;28;19935;-84
2023/05/26 07:56:14;;;;;;;;;;;17.90;99.90;;;;;;5098236;28;19935;-88
2023/05/26 07:58:39;;;;;;;;;;;17.90;99.90;;;;;;5083426;28;19932;-86
2023/05/26 08:01:06;;;;;;;;;;;17.60;99.90;;;;;;5100058;28;19947;-86
2023/05/26 08:03:35;;;;;;;;;;;17.90;99.90;;;;;;5090148;28;19932;-88
2023/05/26 08:06:00;;;;;;;;;;;17.60;99.90;;;;;;5088666;28;19977;-88
2023/05/26 08:08:26;;;;;;;;;;;17.70;99.90;;;;;;5063639;28;19932;-90
2023/05/26 08:10:52;;;;;;;;;;;16.20;99.90;;;;;;5089959;28;20734;-86
2023/05/26 08:13:17;;;;;;;;;;;16.80;99.90;;;;;;5079516;28;20285;-83
2023/05/26 08:15:43;;;;;;;;;;;16.50;99.90;;;;;;5080267;28;19928;-90
2023/05/26 08:18:08;;;;;;;;;;;16.80;99.90;;;;;;5097073;28;19927;-86
2023/05/26 08:20:34;;;;;;;;;;;17.70;99.90;;;;;;5100313;28;19928;-87
2023/05/26 08:23:00;;;;;;;;;;;17.30;99.90;;;;;;5098653;28;19930;-86
2023/05/26 08:25:25;;;;;;;;;;;17.60;99.90;;;;;;5083524;28;19973;-84
2023/05/26 08:27:51;;;;;;;;;;;17.80;99.90;;;;;;5094692;28;21582;-84
2023/05/26 08:30:17;;;;;;;;;;;17.80;99.90;;;;;;5101587;28;19984;-84
2023/05/26 08:32:42;;;;;;;;;;;17.00;99.90;;;;;;5098743;28;20304;-88
2023/05/26 08:35:08;;;;;;;;;;;16.60;99.90;;;;;;5098710;28;20039;-88
2023/05/26 08:37:33;;;;;;;;;;;16.90;99.90;;;;;;5101095;28;19947;-88
2023/05/26 08:39:59;;;;;;;;;;;17.10;99.90;;;;;;5081782;28;19931;-84
2023/05/26 08:42:31;;;;;;;;;;;17.70;99.90;;;;;;5080598;28;19923;-85
2023/05/26 08:44:57;;;;;;;;;;;17.20;99.90;;;;;;5093395;28;19967;-86
2023/05/26 08:47:23;;;;;;;;;;;17.20;99.90;;;;;;5094611;28;19960;-86
2023/05/26 08:49:51;;;;;;;;;;;17.60;99.90;;;;;;5100275;28;19935;-85
2023/05/26 08:52:18;;;;;;;;;;;17.90;99.90;;;;;;5097309;28;20451;-94
2023/05/26 08:54:47;;;;;;;;;;;18.10;99.90;;;;;;5085363;28;19928;-84
2023/05/26 08:57:12;;;;;;;;;;;18.00;99.90;;;;;;5098746;28;19939;-86
2023/05/26 08:59:39;;;;;;;;;;;17.70;99.90;;;;;;5101680;28;19949;-91
2023/05/26 09:02:04;;;;;;;;;;;17.90;99.90;;;;;;5102939;28;20042;-87
2023/05/26 09:04:30;;;;;;;;;;;18.00;99.90;;;;;;5105842;28;20078;-85
2023/05/26 09:06:56;;;;;;;;;;;17.00;99.90;;;;;;5102538;28;19993;-87
2023/05/26 09:09:22;;;;;;;;;;;17.80;99.90;;;;;;5098639;28;19928;-89
2023/05/26 09:11:48;;;;;;;;;;;17.90;99.90;;;;;;5104215;28;19932;-83
2023/05/26 09:14:14;;;;;;;;;;;18.30;99.90;;;;;;5101230;28;19963;-84
2023/05/26 09:16:40;;;;;;;;;;;17.80;99.90;;;;;;5101517;28;19932;-87
2023/05/26 09:19:06;;;;;;;;;;;18.10;99.90;;;;;;5099829;28;20392;-86
2023/05/26 09:21:32;;;;;;;;;;;18.30;99.90;;;;;;5099434;28;19932;-83
2023/05/26 09:23:59;;;;;;;;;;;18.20;99.90;;;;;;5102121;28;20412;-86
2023/05/26 09:26:29;;;;;;;;;;;18.20;99.90;;;;;;5101014;28;19924;-86
2023/05/26 09:28:55;;;;;;;;;;;18.30;99.90;;;;;;5097828;28;19924;-86
2023/05/26 09:31:20;;;;;;;;;;;16.30;99.90;;;;;;5094458;28;19928;-81
2023/05/26 09:33:46;;;;;;;;;;;17.40;99.90;;;;;;5104065;28;20563;-87
2023/05/26 09:36:12;;;;;;;;;;;17.90;99.90;;;;;;5097404;28;19932;-86
2023/05/26 09:38:40;;;;;;;;;;;18.60;99.90;;;;;;5100712;28;19963;-87
2023/05/26 09:41:06;;;;;;;;;;;18.90;99.90;;;;;;5103306;28;19932;-84
2023/05/26 09:43:32;;;;;;;;;;;18.60;99.90;;;;;;5099168;28;20019;-88
2023/05/26 09:45:58;;;;;;;;;;;18.20;99.90;;;;;;5097706;28;19924;-87
2023/05/26 09:48:23;;;;;;;;;;;18.50;99.90;;;;;;5103363;28;19935;-86
2023/05/26 09:50:50;;;;;;;;;;;18.80;99.90;;;;;;5101552;28;20030;-86
2023/05/26 09:53:16;;;;;;;;;;;18.20;99.90;;;;;;5100844;28;19924;-86
2023/05/26 09:55:44;;;;;;;;;;;18.60;99.90;;;;;;5098642;28;20100;-85
2023/05/26 09:58:11;;;;;;;;;;;18.90;99.90;;;;;;5099663;28;19932;-86
2023/05/26 10:00:39;;;;;;;;;;;18.80;99.90;;;;;;5101634;28;19938;-85
2023/05/26 10:03:05;;;;;;;;;;;18.70;99.90;;;;;;5101037;28;20308;-87
2023/05/26 10:05:32;;;;;;;;;;;19.00;99.90;;;;;;5099516;28;20440;-85
2023/05/26 10:07:58;;;;;;;;;;;18.70;99.90;;;;;;5097612;28;21870;-90
2023/05/26 10:10:24;;;;;;;;;;;19.10;99.90;;;;;;5084365;28;19924;-87
2023/05/26 10:12:50;;;;;;;;;;;19.10;99.90;;;;;;5083609;28;19934;-87
2023/05/26 10:15:15;;;;;;;;;;;19.30;99.90;;;;;;5101117;28;19950;-89
2023/05/26 10:17:42;;;;;;;;;;;19.40;99.90;;;;;;5083942;28;20388;-88
2023/05/26 10:20:11;;;;;;;;;;;19.40;99.90;;;;;;5099164;28;20043;-93
2023/05/26 10:22:44;;;;;;;;;;;19.70;99.90;;;;;;5103988;28;19928;-90
2023/05/26 10:25:20;;;;;;;;;;;19.10;99.90;;;;;;5098218;28;20323;-85
2023/05/26 10:27:48;;;;;;;;;;;19.20;99.90;;;;;;5101794;28;19923;-87
2023/05/26 10:30:19;;;;;;;;;;;18.70;99.90;;;;;;5097127;28;19936;-87
2023/05/26 10:32:49;;;;;;;;;;;19.40;99.90;;;;;;5101282;28;19928;-85
2023/05/26 10:35:23;;;;;;;;;;;19.50;99.90;;;;;;5098138;28;19931;-86
2023/05/26 10:37:56;;;;;;;;;;;19.30;99.90;;;;;;5095723;28;19939;-85
2023/05/26 10:40:41;;;;;;;;;;;20.30;99.90;;;;;;5097350;28;20207;-81
2023/05/26 10:43:23;;;;;;;;;;;20.00;99.90;;;;;;5094487;28;19924;-87
2023/05/26 10:45:55;;;;;;;;;;;19.60;99.90;;;;;;5099409;28;21348;-85
2023/05/26 10:48:24;;;;;;;;;;;20.10;99.90;;;;;;5099603;28;20285;-85
2023/05/26 10:50:59;;;;;;;;;;;20.30;99.90;;;;;;5101572;28;20396;-86
2023/05/26 10:53:26;;;;;;;;;;;20.00;99.90;;;;;;5102663;28;19932;-86
2023/05/26 10:55:55;;;;;;;;;;;20.00;98.40;;;;;;5103011;28;19935;-83
2023/05/26 10:58:27;;;;;;;;;;;19.90;99.90;;;;;;5099131;28;19928;-86
2023/05/26 11:01:00;;;;;;;;;;;20.10;99.90;;;;;;5101317;28;20456;-83
2023/05/26 11:03:43;;;;;;;;;;;20.40;99.90;;;;;;5097198;28;20014;-84
2023/05/26 11:06:10;;;;;;;;;;;20.40;99.90;;;;;;5100435;28;20011;-81
2023/05/26 11:08:36;;;;;;;;;;;20.00;99.90;;;;;;5099038;28;19928;-88
2023/05/26 11:11:02;;;;;;;;;;;20.00;97.30;;;;;;5092254;28;19927;-87
2023/05/26 11:13:38;;;;;;;;;;;20.70;99.90;;;;;;5094729;28;19924;-83
2023/05/26 11:16:09;;;;;;;;;;;19.90;98.90;;;;;;5095635;28;20401;-85
2023/05/26 11:18:35;;;;;;;;;;;20.00;98.90;;;;;;5095710;28;19927;-85
2023/05/26 11:21:00;;;;;;;;;;;20.30;99.40;;;;;;5080530;28;19969;-84
2023/05/26 11:23:26;;;;;;;;;;;19.90;99.90;;;;;;5095053;28;20690;-83
2023/05/26 11:25:52;;;;;;;;;;;19.90;99.90;;;;;;5098310;28;20048;-89
2023/05/26 11:28:19;;;;;;;;;;;20.30;99.90;;;;;;5081651;28;19932;-85
2023/05/26 11:30:45;;;;;;;;;;;20.40;99.80;;;;;;5095673;28;20022;-84
2023/05/26 11:33:14;;;;;;;;;;;20.30;99.70;;;;;;5094174;28;19935;-84
2023/05/26 11:35:40;;;;;;;;;;;20.30;98.70;;;;;;5097996;28;19924;-82
2023/05/26 11:38:05;;;;;;;;;;;20.80;99.80;;;;;;5092695;28;19935;-86
2023/05/26 11:40:32;;;;;;;;;;;20.30;99.90;;;;;;5097039;28;19928;-87
2023/05/26 11:42:57;;;;;;;;;;;19.70;97.70;;;;;;5095872;28;19927;-83
2023/05/26 11:45:25;;;;;;;;;;;20.10;99.90;;;;;;5096413;28;19966;-87
2023/05/26 11:47:50;;;;;;;;;;;20.50;98.10;;;;;;5098280;28;20023;-83
2023/05/26 11:50:17;;;;;;;;;;;20.40;97.00;;;;;;5097389;28;20503;-88
2023/05/26 11:52:46;;;;;;;;;;;20.40;97.40;;;;;;5097220;28;19932;-86
2023/05/26 11:55:12;;;;;;;;;;;21.10;98.90;;;;;;5096794;28;19931;-85
2023/05/26 11:57:40;;;;;;;;;;;20.70;97.40;;;;;;5096035;28;19951;-86
2023/05/26 12:00:09;;;;;;;;;;;20.80;98.50;;;;;;5077523;28;19928;-86
2023/05/26 12:02:35;;;;;;;;;;;19.60;97.70;;;;;;5096950;28;19924;-85
2023/05/26 12:05:15;;;;;;;;;;;19.50;98.00;;;;;;5093638;28;20483;-84
2023/05/26 12:07:40;;;;;;;;;;;19.60;97.30;;;;;;5092827;28;19943;-85
2023/05/26 12:10:07;;;;;;;;;;;20.90;99.90;;;;;;5095908;28;19928;-85
2023/05/26 12:12:51;;;;;;;;;;;20.80;98.20;;;;;;5098017;28;20614;-86
2023/05/26 12:15:20;;;;;;;;;;;20.30;98.40;;;;;;5096575;28;19931;-86
2023/05/26 12:17:46;;;;;;;;;;;20.10;98.50;;;;;;5096046;28;19953;-84
2023/05/26 12:20:17;;;;;;;;;;;20.00;99.90;;;;;;5098172;28;19939;-84
2023/05/26 12:22:50;;;;;;;;;;;20.70;98.70;;;;;;5096420;28;19934;-84
2023/05/26 12:25:25;;;;;;;;;;;20.30;96.90;;;;;;5092933;28;19928;-88
2023/05/26 12:27:50;;;;;;;;;;;20.60;97.20;;;;;;5096083;28;19932;-85
2023/05/26 12:30:36;;;;;;;;;;;21.30;97.20;;;;;;5091894;28;20005;-85
2023/05/26 12:33:03;;;;;;;;;;;21.40;98.40;;;;;;5093922;28;20278;-84
2023/05/26 12:35:28;;;;;;;;;;;21.60;98.50;;;;;;5079849;28;19997;-85
2023/05/26 12:37:54;;;;;;;;;;;21.60;95.80;;;;;;5096143;28;19928;-86
2023/05/26 12:40:20;;;;;;;;;;;21.60;99.90;;;;;;5098222;28;20552;-84
2023/05/26 12:42:45;;;;;;;;;;;22.10;97.50;;;;;;5097583;28;20368;-83
2023/05/26 12:45:11;;;;;;;;;;;21.60;97.50;;;;;;5096799;28;20360;-84
2023/05/26 12:47:38;;;;;;;;;;;21.60;96.10;;;;;;5098338;28;19928;-88
2023/05/26 12:50:04;;;;;;;;;;;21.40;98.60;;;;;;5079773;28;20007;-86
2023/05/26 12:52:30;;;;;;;;;;;21.50;99.30;;;;;;5095580;28;20015;-93
2023/05/26 12:54:56;;;;;;;;;;;21.10;99.90;;;;;;5101585;28;19974;-85
2023/05/26 12:57:22;;;;;;;;;;;20.70;95.20;;;;;;5095323;28;20511;-84
2023/05/26 12:59:47;;;;;;;;;;;20.90;97.40;;;;;;5098335;28;20036;-88
2023/05/26 13:02:13;;;;;;;;;;;21.20;97.70;;;;;;5097693;28;19978;-87
2023/05/26 13:04:38;;;;;;;;;;;20.90;97.20;;;;;;5101276;28;20284;-87
2023/05/26 13:07:05;;;;;;;;;;;20.80;96.30;;;;;;5094909;28;20015;-86
2023/05/26 13:09:31;;;;;;;;;;;21.20;99.30;;;;;;5083435;28;19923;-87
2023/05/26 13:12:00;;;;;;;;;;;21.20;98.80;;;;;;5094837;28;19924;-84
2023/05/26 13:14:26;;;;;;;;;;;21.60;97.90;;;;;;5098556;28;20565;-86
2023/05/26 13:16:51;;;;;;;;;;;21.00;95.50;;;;;;5097763;28;19959;-87
2023/05/26 13:19:17;;;;;;;;;;;21.90;98.30;;;;;;5092349;28;20284;-87
2023/05/26 13:21:43;;;;;;;;;;;21.10;96.50;;;;;;5096356;28;19928;-84
2023/05/26 13:24:08;;;;;;;;;;;21.40;98.20;;;;;;5093916;28;20274;-85
2023/05/26 13:26:34;;;;;;;;;;;20.90;96.60;;;;;;5094373;28;19963;-87
2023/05/26 13:29:00;;;;;;;;;;;20.70;97.10;;;;;;5079899;28;19969;-85
2023/05/26 13:31:25;;;;;;;;;;;21.30;97.80;;;;;;5091602;28;20023;-85
2023/05/26 13:33:54;;;;;;;;;;;20.60;95.70;;;;;;5091904;28;19927;-90
2023/05/26 13:36:21;;;;;;;;;;;20.80;98.10;;;;;;5084961;28;19928;-86
2023/05/26 13:38:46;;;;;;;;;;;21.60;99.90;;;;;;5093014;28;19928;-88
2023/05/26 13:41:12;;;;;;;;;;;20.20;97.50;;;;;;5077220;28;20285;-85
2023/05/26 13:43:38;;;;;;;;;;;20.30;98.70;;;;;;5085649;28;20507;-86
2023/05/26 13:46:03;;;;;;;;;;;20.60;99.30;;;;;;5088685;28;19927;-86
2023/05/26 13:48:29;;;;;;;;;;;20.90;99.90;;;;;;5093654;28;20278;-86
2023/05/26 13:50:54;;;;;;;;;;;20.90;99.10;;;;;;5076413;28;20014;-85
2023/05/26 13:53:20;;;;;;;;;;;21.20;99.90;;;;;;5075323;28;19924;-85
2023/05/26 13:55:46;;;;;;;;;;;20.90;99.90;;;;;;5095841;28;19950;-86
2023/05/26 13:58:12;;;;;;;;;;;20.90;98.40;;;;;;5093238;28;20417;-86
2023/05/26 14:00:37;;;;;;;;;;;20.80;98.90;;;;;;5093051;28;20351;-86
2023/05/26 14:03:03;;;;;;;;;;;20.90;99.90;;;;;;5093762;28;19938;-87
2023/05/26 14:05:29;;;;;;;;;;;21.00;99.90;;;;;;5094350;28;19944;-90
2023/05/26 14:07:54;;;;;;;;;;;20.90;98.70;;;;;;5099288;28;20380;-85
2023/05/26 14:10:20;;;;;;;;;;;20.70;99.90;;;;;;5095839;28;19955;-89
2023/05/26 14:12:46;;;;;;;;;;;21.20;99.90;;;;;;5100182;28;19927;-86
2023/05/26 14:15:11;;;;;;;;;;;21.00;97.30;;;;;;5093213;28;19928;-88
2023/05/26 14:17:37;;;;;;;;;;;20.20;96.50;;;;;;5096960;28;19942;-86
2023/05/26 14:20:03;;;;;;;;;;;20.50;99.90;;;;;;5095582;28;19928;-84
2023/05/26 14:22:29;;;;;;;;;;;20.60;99.90;;;;;;5093661;28;19975;-87